Time;durP1;ratioP1;P1;durP2;ratioP2;P2;SDS_P1;SDS_P2;PMS_P1;PMS_P2;Temp;Humidity;BMP_temperature;BMP_pressure;BME280_temperature;BME280_humidity;BME280_pressure;Samples;Min_cycle;Max_cycle;Signal;HPM_P1;HPM_P2
2021/11/15 00:02:32;;;;;;;16.20;11.53;;;10.10;99.90;;;;;;5065930;28;20470;-75
2021/11/15 00:05:19;;;;;;;17.77;11.30;;;10.10;99.90;;;;;;5068944;28;20561;-75
2021/11/15 00:08:05;;;;;;;15.50;11.40;;;10.10;99.90;;;;;;5068707;28;20466;-74
2021/11/15 00:10:51;;;;;;;19.90;13.23;;;10.10;99.90;;;;;;5073889;28;20442;-74
2021/11/15 00:13:37;;;;;;;19.13;14.07;;;10.10;99.90;;;;;;5073035;28;20955;-75
2021/11/15 00:16:23;;;;;;;15.30;11.80;;;10.10;99.90;;;;;;5067356;28;21025;-74
2021/11/15 00:19:09;;;;;;;14.70;11.97;;;10.00;99.90;;;;;;5070627;28;20450;-75
2021/11/15 00:21:56;;;;;;;16.00;12.30;;;10.00;99.90;;;;;;5073485;28;20482;-74
2021/11/15 00:24:41;;;;;;;20.50;12.25;;;10.00;99.90;;;;;;5067876;28;20545;-74
2021/11/15 00:27:27;;;;;;;20.48;14.00;;;10.00;99.90;;;;;;5073218;28;20207;-74
2021/11/15 00:30:14;;;;;;;20.80;13.67;;;10.00;99.90;;;;;;5068031;28;20251;-74
2021/11/15 00:33:00;;;;;;;18.40;14.33;;;10.00;99.90;;;;;;5069394;28;20536;-74
2021/11/15 00:35:46;;;;;;;19.83;13.53;;;10.00;99.90;;;;;;5067391;28;20508;-74
2021/11/15 00:38:33;;;;;;;21.13;15.00;;;10.00;99.90;;;;;;5070636;28;20442;-75
2021/11/15 00:41:19;;;;;;;18.77;13.17;;;10.00;99.90;;;;;;5071964;28;20465;-73
2021/11/15 00:44:04;;;;;;;18.60;14.13;;;10.00;99.90;;;;;;5066887;28;20440;-75
2021/11/15 00:46:50;;;;;;;18.37;12.67;;;10.00;99.90;;;;;;5067483;28;20493;-74
2021/11/15 00:49:36;;;;;;;20.03;13.70;;;10.10;99.90;;;;;;5074980;28;20979;-74
2021/11/15 00:52:21;;;;;;;18.33;13.50;;;10.10;99.90;;;;;;5071054;28;20449;-75
2021/11/15 00:55:09;;;;;;;16.10;12.20;;;10.00;99.90;;;;;;5075276;28;21074;-74
2021/11/15 00:57:55;;;;;;;18.63;13.20;;;10.00;99.90;;;;;;5067599;28;20462;-74
2021/11/15 01:00:41;;;;;;;16.23;12.60;;;10.10;99.90;;;;;;5065404;28;20453;-75
2021/11/15 01:03:27;;;;;;;16.00;12.30;;;10.10;99.90;;;;;;5066724;28;20540;-74
2021/11/15 01:06:12;;;;;;;20.17;13.87;;;10.10;99.90;;;;;;5070379;28;20544;-75
2021/11/15 01:08:58;;;;;;;19.43;13.47;;;10.10;99.90;;;;;;5072903;28;20500;-74
2021/11/15 01:11:45;;;;;;;20.57;13.97;;;10.10;99.90;;;;;;5068742;28;20952;-75
2021/11/15 01:14:30;;;;;;;18.07;13.40;;;10.10;99.90;;;;;;5068656;28;21066;-74
2021/11/15 01:17:16;;;;;;;21.17;13.83;;;10.10;99.90;;;;;;5066285;28;20576;-74
2021/11/15 01:20:02;;;;;;;17.80;13.60;;;10.00;99.90;;;;;;5067166;28;20450;-74
2021/11/15 01:22:48;;;;;;;21.07;14.77;;;10.10;99.90;;;;;;5065893;28;20541;-75
2021/11/15 01:25:34;;;;;;;20.93;12.23;;;10.10;99.90;;;;;;5068613;28;20446;-74
2021/11/15 01:28:22;;;;;;;20.57;14.40;;;10.10;99.90;;;;;;5070276;28;20528;-74
2021/11/15 01:31:07;;;;;;;21.13;14.23;;;10.00;99.90;;;;;;5067467;28;21224;-74
2021/11/15 01:33:53;;;;;;;18.80;14.07;;;10.00;99.90;;;;;;5068961;28;20544;-75
2021/11/15 01:36:39;;;;;;;23.70;14.83;;;10.00;99.90;;;;;;5071719;28;20519;-75
2021/11/15 01:39:25;;;;;;;20.53;13.73;;;10.00;99.90;;;;;;5069758;28;20520;-74
2021/11/15 01:42:11;;;;;;;21.77;14.40;;;10.00;99.90;;;;;;5070214;28;20549;-74
2021/11/15 01:44:58;;;;;;;23.67;15.30;;;10.00;99.90;;;;;;5062428;28;21022;-74
2021/11/15 01:47:44;;;;;;;23.17;14.13;;;10.00;99.90;;;;;;5070539;28;20454;-75
2021/11/15 01:50:32;;;;;;;23.63;14.80;;;10.00;99.90;;;;;;5064466;28;20444;-75
2021/11/15 01:53:17;;;;;;;19.07;12.43;;;9.90;99.90;;;;;;5070855;28;20470;-74
2021/11/15 01:56:03;;;;;;;16.57;13.40;;;9.90;99.90;;;;;;5074878;28;20454;-74
2021/11/15 01:58:49;;;;;;;21.37;14.43;;;9.90;99.90;;;;;;5096062;22;20493;-70
2021/11/15 02:01:36;;;;;;;25.40;16.20;;;10.00;99.90;;;;;;5086357;28;20558;-68
2021/11/15 02:04:21;;;;;;;20.47;14.10;;;9.90;99.90;;;;;;5084685;28;20513;-69
2021/11/15 02:07:07;;;;;;;20.70;12.83;;;9.90;99.90;;;;;;5088229;28;20465;-69
2021/11/15 02:09:53;;;;;;;20.90;13.90;;;9.90;99.90;;;;;;5086033;28;20496;-68
2021/11/15 02:12:39;;;;;;;19.13;13.87;;;10.00;99.90;;;;;;5083480;28;20471;-69
2021/11/15 02:15:25;;;;;;;18.07;13.43;;;10.00;99.90;;;;;;5086920;28;20483;-68
2021/11/15 02:18:13;;;;;;;22.07;14.13;;;10.00;99.90;;;;;;5084844;28;20469;-68
2021/11/15 02:21:02;;;;;;;18.23;13.83;;;9.90;99.90;;;;;;5086965;28;20414;-69
2021/11/15 02:23:48;;;;;;;21.17;14.50;;;9.90;99.90;;;;;;5090247;28;20456;-69
2021/11/15 02:26:34;;;;;;;21.30;15.33;;;10.00;99.90;;;;;;5086177;28;20441;-69
2021/11/15 02:29:20;;;;;;;19.50;12.83;;;10.00;99.90;;;;;;5090649;28;20487;-68
2021/11/15 02:32:06;;;;;;;19.50;12.50;;;10.00;99.90;;;;;;5087621;28;20512;-68
2021/11/15 02:34:52;;;;;;;17.67;12.80;;;10.00;99.90;;;;;;5088878;28;20594;-70
2021/11/15 02:37:39;;;;;;;21.10;13.00;;;10.00;99.90;;;;;;5090296;28;20619;-70
2021/11/15 02:40:27;;;;;;;15.37;11.93;;;9.90;99.90;;;;;;5092459;28;20966;-68
2021/11/15 02:43:13;;;;;;;19.50;14.70;;;9.90;99.90;;;;;;5087972;28;20473;-69
2021/11/15 02:45:58;;;;;;;18.33;13.07;;;9.90;99.90;;;;;;5089278;28;20429;-70
2021/11/15 02:48:44;;;;;;;18.37;12.53;;;9.90;99.90;;;;;;5092240;28;20802;-69
2021/11/15 02:51:30;;;;;;;21.53;15.37;;;9.80;99.90;;;;;;5087591;28;20531;-69
2021/11/15 02:54:20;;;;;;;20.13;13.60;;;9.70;99.90;;;;;;5090110;28;20414;-69
2021/11/15 02:57:09;;;;;;;17.90;12.50;;;9.60;99.90;;;;;;5090078;28;20461;-68
2021/11/15 02:59:55;;;;;;;22.60;13.90;;;9.70;99.90;;;;;;5087394;28;21101;-69
2021/11/15 03:02:40;;;;;;;18.77;12.93;;;9.70;99.90;;;;;;5087317;28;20468;-68
2021/11/15 03:05:29;;;;;;;18.17;13.20;;;9.60;99.90;;;;;;5091884;28;20422;-68
2021/11/15 03:08:16;;;;;;;20.73;14.37;;;9.60;99.90;;;;;;5087132;28;20514;-68
2021/11/15 03:11:06;;;;;;;18.70;12.33;;;9.60;99.90;;;;;;5090375;28;20437;-69
2021/11/15 03:13:52;;;;;;;22.13;12.33;;;9.60;99.90;;;;;;5086868;28;20915;-68
2021/11/15 03:16:38;;;;;;;24.00;13.73;;;9.50;99.90;;;;;;5090007;28;20430;-69
2021/11/15 03:19:23;;;;;;;19.90;13.70;;;9.50;99.90;;;;;;5086809;28;20966;-70
2021/11/15 03:22:09;;;;;;;20.37;13.63;;;9.60;99.90;;;;;;5086147;28;20473;-69
2021/11/15 03:24:55;;;;;;;22.80;13.17;;;9.60;99.90;;;;;;5085917;28;20419;-68
2021/11/15 03:27:42;;;;;;;20.30;13.53;;;9.60;99.90;;;;;;5088578;28;20986;-69
2021/11/15 03:30:28;;;;;;;18.00;14.05;;;9.50;99.90;;;;;;5085891;28;20510;-70
2021/11/15 03:33:14;;;;;;;20.97;14.70;;;9.60;99.90;;;;;;5089840;28;20684;-69
2021/11/15 03:36:00;;;;;;;16.93;13.30;;;9.60;99.90;;;;;;5088816;28;20469;-70
2021/11/15 03:38:47;;;;;;;27.70;14.47;;;9.60;99.90;;;;;;5091196;28;20500;-70
2021/11/15 03:41:35;;;;;;;25.27;15.03;;;9.60;99.90;;;;;;5084860;28;20450;-69
2021/11/15 03:44:22;;;;;;;19.00;13.93;;;9.60;99.90;;;;;;5091384;28;20438;-69
2021/11/15 03:47:08;;;;;;;19.10;13.27;;;9.60;99.90;;;;;;5082979;28;20914;-68
2021/11/15 03:49:53;;;;;;;21.47;14.20;;;9.60;99.90;;;;;;5092392;28;20404;-69
2021/11/15 03:52:41;;;;;;;18.27;12.70;;;9.50;99.90;;;;;;5091476;28;20524;-69
2021/11/15 03:55:27;;;;;;;20.93;12.97;;;9.50;99.90;;;;;;5086815;28;20580;-70
2021/11/15 03:58:13;;;;;;;19.30;13.17;;;9.50;99.90;;;;;;5087197;28;21025;-70
2021/11/15 04:01:02;;;;;;;18.47;13.07;;;9.50;99.90;;;;;;5085538;28;20437;-69
2021/11/15 04:03:48;;;;;;;20.87;13.07;;;9.50;99.90;;;;;;5089726;28;20461;-68
2021/11/15 04:06:39;;;;;;;19.57;13.90;;;9.50;99.90;;;;;;5090393;28;20480;-68
2021/11/15 04:09:24;;;;;;;22.37;13.70;;;9.50;99.90;;;;;;5084231;28;20410;-69
2021/11/15 04:12:10;;;;;;;19.77;13.33;;;9.40;99.90;;;;;;5090187;28;20482;-69
2021/11/15 04:14:56;;;;;;;18.90;13.27;;;9.50;99.90;;;;;;5084618;28;21016;-69
2021/11/15 04:17:44;;;;;;;20.33;14.30;;;9.50;99.90;;;;;;5085319;28;20481;-68
2021/11/15 04:20:30;;;;;;;20.70;13.43;;;9.40;99.90;;;;;;5089916;28;20483;-69
2021/11/15 04:23:16;;;;;;;20.13;14.03;;;9.50;99.90;;;;;;5089267;28;20511;-69
2021/11/15 04:26:02;;;;;;;23.57;14.00;;;9.50;99.90;;;;;;5088319;28;20449;-69
2021/11/15 04:28:48;;;;;;;17.30;13.33;;;9.50;99.90;;;;;;5085503;28;20957;-68
2021/11/15 04:31:33;;;;;;;18.93;12.93;;;9.50;99.90;;;;;;5090965;28;20944;-70
2021/11/15 04:34:20;;;;;;;19.50;14.07;;;9.50;99.90;;;;;;5089145;28;20940;-69
2021/11/15 04:37:06;;;;;;;20.33;13.50;;;9.50;99.90;;;;;;5083988;28;20420;-69
2021/11/15 04:39:56;;;;;;;18.00;13.37;;;9.50;99.90;;;;;;5083751;28;20833;-69
2021/11/15 04:42:41;;;;;;;16.87;13.07;;;9.50;99.90;;;;;;5082549;28;20803;-68
2021/11/15 04:45:27;;;;;;;20.90;13.93;;;9.50;99.90;;;;;;5084836;28;20922;-69
2021/11/15 04:48:13;;;;;;;21.17;12.73;;;9.50;99.90;;;;;;5089256;28;20972;-69
2021/11/15 04:51:01;;;;;;;20.30;13.63;;;9.50;99.90;;;;;;5087553;28;20923;-69
2021/11/15 04:53:46;;;;;;;18.20;13.00;;;9.50;99.90;;;;;;5082544;28;20528;-69
2021/11/15 04:56:33;;;;;;;20.00;14.00;;;9.40;99.90;;;;;;5086884;28;20412;-70
2021/11/15 04:59:18;;;;;;;14.93;11.07;;;9.50;99.90;;;;;;5080395;28;20452;-69
2021/11/15 05:02:05;;;;;;;18.37;11.97;;;9.50;99.90;;;;;;5086497;28;20499;-68
2021/11/15 05:04:50;;;;;;;18.20;13.10;;;9.50;99.90;;;;;;5086505;28;20438;-69
2021/11/15 05:07:37;;;;;;;20.20;12.20;;;9.50;99.90;;;;;;5084859;28;20558;-68
2021/11/15 05:10:24;;;;;;;18.27;12.83;;;9.50;99.90;;;;;;5086827;28;20496;-69
2021/11/15 05:13:10;;;;;;;16.13;12.27;;;9.60;99.90;;;;;;5084587;28;20596;-69
2021/11/15 05:15:56;;;;;;;18.47;11.10;;;9.50;99.90;;;;;;5080828;28;20446;-68
2021/11/15 05:18:42;;;;;;;14.90;11.47;;;9.50;99.90;;;;;;5087502;28;20465;-68
2021/11/15 05:21:28;;;;;;;16.80;11.90;;;9.50;99.90;;;;;;5085036;28;20557;-69
2021/11/15 05:24:16;;;;;;;17.10;11.90;;;9.50;99.90;;;;;;5084908;28;20469;-68
2021/11/15 05:27:01;;;;;;;14.43;10.63;;;9.40;99.90;;;;;;5090290;28;20818;-69
2021/11/15 05:29:47;;;;;;;18.83;12.43;;;9.40;99.90;;;;;;5081487;28;20447;-69
2021/11/15 05:32:33;;;;;;;14.73;10.70;;;9.40;99.90;;;;;;5088183;28;20438;-71
2021/11/15 05:35:21;;;;;;;14.17;10.70;;;9.30;99.90;;;;;;5087423;28;20545;-69
2021/11/15 05:38:07;;;;;;;15.30;10.30;;;9.30;99.90;;;;;;5083653;28;20545;-68
2021/11/15 05:40:55;;;;;;;13.23;10.57;;;9.20;99.90;;;;;;5086003;28;20449;-69
2021/11/15 05:43:40;;;;;;;17.07;10.90;;;9.30;99.90;;;;;;5084998;28;20469;-69
2021/11/15 05:46:26;;;;;;;14.80;10.90;;;9.30;99.90;;;;;;5084250;28;20550;-69
2021/11/15 05:49:12;;;;;;;13.70;9.70;;;9.30;99.90;;;;;;5085008;28;20532;-69
2021/11/15 05:51:58;;;;;;;13.70;10.13;;;9.40;99.90;;;;;;5083161;28;20465;-71
2021/11/15 05:54:43;;;;;;;12.10;9.60;;;9.30;99.90;;;;;;5084411;28;20978;-68
2021/11/15 05:57:30;;;;;;;14.47;9.00;;;9.30;99.90;;;;;;5089592;28;20588;-68
2021/11/15 06:00:18;;;;;;;11.60;8.00;;;9.30;99.90;;;;;;5085878;28;20437;-70
2021/11/15 06:03:04;;;;;;;12.83;9.57;;;9.30;99.90;;;;;;5093240;28;20485;-69
2021/11/15 06:05:49;;;;;;;12.50;10.10;;;9.20;99.90;;;;;;5091832;28;20441;-70
2021/11/15 06:08:35;;;;;;;14.48;9.63;;;9.20;99.90;;;;;;5088969;28;20468;-68
2021/11/15 06:11:20;;;;;;;12.03;8.37;;;9.30;99.90;;;;;;5083725;28;20208;-70
2021/11/15 06:14:07;;;;;;;15.70;9.20;;;9.30;99.90;;;;;;5088811;28;20445;-68
2021/11/15 06:16:53;;;;;;;18.37;10.87;;;9.30;99.90;;;;;;5091054;28;21060;-68
2021/11/15 06:19:39;;;;;;;14.47;9.80;;;9.30;99.90;;;;;;5091944;28;20785;-69
2021/11/15 06:22:25;;;;;;;12.50;9.30;;;9.30;99.90;;;;;;5090014;28;20487;-68
2021/11/15 06:25:12;;;;;;;14.20;10.00;;;9.30;99.90;;;;;;5090120;28;20499;-68
2021/11/15 06:27:58;;;;;;;15.50;11.17;;;9.40;99.90;;;;;;5090869;28;20874;-69
2021/11/15 06:30:45;;;;;;;18.77;11.17;;;9.40;99.90;;;;;;5089879;28;20442;-69
2021/11/15 06:33:30;;;;;;;12.77;9.23;;;9.30;99.90;;;;;;5089898;28;20475;-68
2021/11/15 06:36:17;;;;;;;13.32;9.75;;;9.30;99.90;;;;;;5087981;28;20496;-69
2021/11/15 06:39:03;;;;;;;11.88;9.70;;;9.40;99.90;;;;;;5088428;28;20317;-69
2021/11/15 06:41:52;;;;;;;19.53;10.70;;;9.30;99.90;;;;;;5088068;28;20269;-70
2021/11/15 06:44:38;;;;;;;12.03;8.70;;;9.30;99.90;;;;;;5087689;28;20465;-68
2021/11/15 06:47:25;;;;;;;11.57;9.73;;;9.30;99.90;;;;;;5092030;28;20477;-69
2021/11/15 06:50:14;;;;;;;15.73;9.23;;;9.30;99.90;;;;;;5083790;28;20595;-68
2021/11/15 06:53:00;;;;;;;11.23;8.63;;;9.30;99.90;;;;;;5091555;28;20600;-70
2021/11/15 06:55:46;;;;;;;14.47;9.47;;;9.30;99.90;;;;;;5091417;28;20762;-68
2021/11/15 06:58:32;;;;;;;12.97;8.33;;;9.30;99.90;;;;;;5091891;28;20522;-69
2021/11/15 07:01:17;;;;;;;14.17;8.80;;;9.20;99.90;;;;;;5088830;28;20447;-68
2021/11/15 07:04:06;;;;;;;11.98;9.48;;;9.20;99.90;;;;;;5089530;28;20469;-68
2021/11/15 07:06:51;;;;;;;12.97;9.10;;;9.10;99.90;;;;;;5090415;28;20219;-69
2021/11/15 07:09:37;;;;;;;11.17;8.90;;;9.10;99.90;;;;;;5090265;28;20444;-69
2021/11/15 07:12:23;;;;;;;11.90;9.13;;;9.10;99.90;;;;;;5092364;28;20430;-69
2021/11/15 07:15:10;;;;;;;13.20;9.40;;;9.20;99.90;;;;;;5091009;28;20784;-69
2021/11/15 07:17:56;;;;;;;12.33;9.50;;;9.20;99.90;;;;;;5090015;28;20853;-69
2021/11/15 07:20:42;;;;;;;13.13;9.80;;;9.20;99.90;;;;;;5086697;28;20465;-69
2021/11/15 07:23:28;;;;;;;12.40;9.65;;;9.30;99.90;;;;;;5087847;28;20235;-71
2021/11/15 07:26:14;;;;;;;14.88;9.70;;;9.30;99.90;;;;;;5086427;28;20196;-69
2021/11/15 07:29:00;;;;;;;13.48;10.05;;;9.40;99.90;;;;;;5087494;28;20223;-69
2021/11/15 07:31:47;;;;;;;13.77;9.83;;;9.40;99.90;;;;;;5088744;28;20203;-69
2021/11/15 07:34:33;;;;;;;11.93;9.17;;;9.40;99.90;;;;;;5075292;28;20533;-70
2021/11/15 07:37:20;;;;;;;14.70;9.65;;;9.30;99.90;;;;;;5091712;28;20980;-69
2021/11/15 07:40:08;;;;;;;12.80;9.30;;;9.30;99.90;;;;;;5089913;28;20199;-69
2021/11/15 07:42:54;;;;;;;12.93;9.87;;;9.30;99.90;;;;;;5089059;28;20437;-69
2021/11/15 07:45:39;;;;;;;11.10;9.47;;;9.30;99.90;;;;;;5087358;28;20437;-71
2021/11/15 07:48:25;;;;;;;16.80;9.27;;;9.20;99.90;;;;;;5087572;28;20571;-72
2021/11/15 07:51:11;;;;;;;13.90;9.53;;;9.30;99.90;;;;;;5089669;28;20432;-69
2021/11/15 07:53:58;;;;;;;15.20;9.30;;;9.20;99.90;;;;;;5088000;28;20788;-69
2021/11/15 07:56:44;;;;;;;13.30;9.80;;;9.20;99.90;;;;;;5084708;28;20966;-70
2021/11/15 07:59:29;;;;;;;13.70;10.23;;;9.20;99.90;;;;;;5102536;22;20230;-76
2021/11/15 08:02:15;;;;;;;11.90;9.07;;;9.20;99.90;;;;;;5091222;28;20442;-76
2021/11/15 08:05:01;;;;;;;15.75;8.75;;;9.20;99.90;;;;;;5084834;28;20473;-76
2021/11/15 08:07:47;;;;;;;16.35;9.45;;;9.20;99.90;;;;;;5087580;28;20211;-76
2021/11/15 08:10:35;;;;;;;12.37;9.80;;;9.20;99.90;;;;;;5088381;28;20227;-78
2021/11/15 08:13:21;;;;;;;18.33;9.93;;;9.20;99.90;;;;;;5086367;28;20523;-76
2021/11/15 08:16:06;;;;;;;13.57;9.82;;;9.20;99.90;;;;;;5088107;28;20453;-76
2021/11/15 08:18:52;;;;;;;14.83;10.60;;;9.20;99.90;;;;;;5086823;28;20231;-76
2021/11/15 08:21:38;;;;;;;18.23;10.17;;;9.30;99.90;;;;;;5089179;28;20946;-76
2021/11/15 08:25:20;;;;;;;14.13;10.50;;;9.30;99.90;;;;;;5088719;28;20473;-76
2021/11/15 08:28:07;;;;;;;13.97;10.40;;;9.30;99.90;;;;;;5070412;28;21097;-76
2021/11/15 08:30:53;;;;;;;13.80;9.00;;;9.30;99.90;;;;;;5086626;28;20520;-76
2021/11/15 08:33:39;;;;;;;15.30;9.47;;;9.40;99.90;;;;;;5087463;28;20828;-76
2021/11/15 08:36:26;;;;;;;15.60;11.33;;;9.40;99.90;;;;;;5085445;28;20450;-76
2021/11/15 08:39:14;;;;;;;13.90;10.60;;;9.40;99.90;;;;;;5081444;28;20459;-75
2021/11/15 08:42:01;;;;;;;14.63;10.13;;;9.40;99.90;;;;;;5089082;28;20441;-75
2021/11/15 08:44:54;;;;;;;14.00;9.67;;;9.40;99.90;;;;;;5085529;28;20550;-75
2021/11/15 08:47:40;;;;;;;15.47;10.37;;;9.40;99.90;;;;;;5089268;28;20516;-75
2021/11/15 08:50:26;;;;;;;14.03;10.00;;;9.40;99.90;;;;;;5086985;28;20452;-75
2021/11/15 08:53:11;;;;;;;14.82;10.85;;;9.40;99.90;;;;;;5085703;28;20487;-75
2021/11/15 08:55:57;;;;;;;16.83;10.60;;;9.50;99.90;;;;;;5085318;28;20203;-74
2021/11/15 08:58:43;;;;;;;14.13;10.27;;;9.40;99.90;;;;;;5082668;28;20595;-75
2021/11/15 09:01:30;;;;;;;16.63;9.90;;;9.40;99.90;;;;;;5083995;28;20942;-73
2021/11/15 09:04:16;;;;;;;16.37;10.30;;;9.30;99.90;;;;;;5084722;28;20481;-74
2021/11/15 09:07:02;;;;;;;14.07;10.30;;;9.30;99.90;;;;;;5091155;28;20428;-74
2021/11/15 09:09:48;;;;;;;15.67;10.70;;;9.40;99.90;;;;;;5083710;28;20469;-73
2021/11/15 09:12:35;;;;;;;15.50;10.67;;;9.40;99.90;;;;;;5080903;28;20415;-76
2021/11/15 09:15:20;;;;;;;16.90;11.27;;;9.40;99.90;;;;;;5083052;28;20430;-77
2021/11/15 09:18:08;;;;;;;13.20;10.00;;;9.40;99.90;;;;;;5092741;28;20573;-76
2021/11/15 09:20:53;;;;;;;15.67;9.90;;;9.50;99.90;;;;;;5095297;28;20464;-77
2021/11/15 09:23:42;;;;;;;14.67;10.17;;;9.50;99.90;;;;;;5098980;28;20967;-77
2021/11/15 09:26:28;;;;;;;13.80;10.30;;;9.50;99.90;;;;;;5101502;28;20418;-78
2021/11/15 09:29:14;;;;;;;16.97;10.43;;;9.50;99.90;;;;;;5098677;28;20492;-78
2021/11/15 09:32:00;;;;;;;13.70;10.27;;;9.50;99.90;;;;;;5098454;28;20497;-76
2021/11/15 09:34:47;;;;;;;17.50;11.10;;;9.50;99.90;;;;;;5103552;28;20418;-78
2021/11/15 09:37:34;;;;;;;15.13;10.73;;;9.60;99.90;;;;;;5105945;28;20420;-77
2021/11/15 09:40:19;;;;;;;13.60;10.90;;;9.50;99.90;;;;;;5103229;28;20415;-78
2021/11/15 09:43:05;;;;;;;15.30;11.97;;;9.50;99.90;;;;;;5101323;28;20425;-77
2021/11/15 09:45:51;;;;;;;14.77;10.63;;;9.50;99.90;;;;;;5103846;28;20477;-76
2021/11/15 09:48:40;;;;;;;14.67;10.50;;;9.50;99.90;;;;;;5093005;28;20449;-74
2021/11/15 09:51:28;;;;;;;15.33;10.23;;;9.40;99.90;;;;;;5099935;28;20444;-77
2021/11/15 09:54:14;;;;;;;14.70;10.90;;;9.40;99.90;;;;;;5092422;28;20409;-77
2021/11/15 09:57:00;;;;;;;16.10;10.53;;;9.40;99.90;;;;;;5104427;28;20938;-78
2021/11/15 09:59:46;;;;;;;14.30;10.73;;;9.40;99.90;;;;;;5096874;28;20457;-78
2021/11/15 10:02:32;;;;;;;14.83;9.80;;;9.40;99.90;;;;;;5094292;28;20496;-77
2021/11/15 10:05:18;;;;;;;14.10;9.30;;;9.40;99.90;;;;;;5102344;28;20468;-78
2021/11/15 10:08:09;;;;;;;10.90;8.00;;;9.40;99.90;;;;;;5098305;28;20457;-79
2021/11/15 10:10:57;;;;;;;12.80;8.47;;;9.40;99.90;;;;;;5088038;28;20416;-78
2021/11/15 10:13:43;;;;;;;13.77;9.40;;;9.40;99.90;;;;;;5097067;28;20506;-78
2021/11/15 10:16:29;;;;;;;11.80;8.10;;;9.40;99.90;;;;;;5092085;28;20438;-79
2021/11/15 10:19:15;;;;;;;11.47;7.17;;;9.40;99.90;;;;;;5103030;28;20583;-78
2021/11/15 10:22:03;;;;;;;11.07;8.07;;;9.40;99.90;;;;;;5099246;28;20938;-78
2021/11/15 10:24:50;;;;;;;10.47;7.87;;;9.40;99.90;;;;;;5095127;28;20532;-79
2021/11/15 10:27:37;;;;;;;12.00;7.80;;;9.50;99.90;;;;;;5099452;28;20441;-77
2021/11/15 10:30:23;;;;;;;13.00;8.70;;;9.40;99.90;;;;;;5091732;28;20563;-77
2021/11/15 10:33:11;;;;;;;10.93;6.70;;;9.50;99.90;;;;;;5104361;28;20461;-76
2021/11/15 10:35:57;;;;;;;10.93;7.07;;;9.50;99.90;;;;;;5101087;28;20472;-78
2021/11/15 10:38:45;;;;;;;10.93;7.60;;;9.50;99.90;;;;;;5093455;28;20461;-78
2021/11/15 10:41:33;;;;;;;11.40;8.60;;;9.50;99.90;;;;;;5101327;28;20425;-78
2021/11/15 10:44:19;;;;;;;13.70;8.80;;;9.40;99.90;;;;;;5095018;28;20513;-77
2021/11/15 10:47:06;;;;;;;12.77;8.13;;;9.40;99.90;;;;;;5096935;28;20401;-77
2021/11/15 10:50:04;;;;;;;13.07;7.87;;;9.40;99.90;;;;;;5094870;28;20903;-78
2021/11/15 10:53:00;;;;;;;11.50;7.80;;;9.40;99.90;;;;;;5096573;28;20440;-78
2021/11/15 10:55:49;;;;;;;14.43;8.43;;;9.30;99.90;;;;;;5097402;28;20456;-78
2021/11/15 10:58:41;;;;;;;13.83;9.63;;;9.40;99.90;;;;;;5094536;28;20812;-78
2021/11/15 11:01:31;;;;;;;12.50;8.67;;;9.30;99.90;;;;;;5094870;28;20415;-78
2021/11/15 11:04:23;;;;;;;13.90;8.27;;;9.40;99.90;;;;;;5094827;28;20429;-80
2021/11/15 11:07:20;;;;;;;11.17;7.77;;;9.40;99.90;;;;;;5096666;28;20568;-79
2021/11/15 11:10:06;;;;;;;19.17;9.10;;;9.30;99.90;;;;;;5082971;28;20529;-78
2021/11/15 11:13:04;;;;;;;11.47;8.70;;;9.30;99.90;;;;;;5092647;28;20738;-80
2021/11/15 11:15:53;;;;;;;15.93;9.20;;;9.30;99.90;;;;;;5085693;28;20430;-78
2021/11/15 11:18:44;;;;;;;15.48;8.68;;;9.30;99.90;;;;;;5091551;28;20565;-79
2021/11/15 11:24:40;;;;;;;18.33;9.60;;;9.40;99.90;;;;;;5087881;28;21033;-79
2021/11/15 11:27:27;;;;;;;17.37;9.50;;;9.20;99.90;;;;;;5096115;28;20426;-80
2021/11/15 11:30:12;;;;;;;15.30;9.90;;;9.20;99.90;;;;;;5096359;28;20384;-79
2021/11/15 11:33:00;;;;;;;20.20;9.43;;;9.30;99.90;;;;;;5095643;28;20483;-76
2021/11/15 11:35:46;;;;;;;15.60;8.87;;;9.30;99.90;;;;;;5093331;28;20427;-78
2021/11/15 11:38:31;;;;;;;14.20;9.57;;;9.30;99.90;;;;;;5091717;28;20438;-79
2021/11/15 11:41:18;;;;;;;20.00;12.53;;;9.30;99.90;;;;;;5095232;28;20489;-78
2021/11/15 11:44:07;;;;;;;17.20;9.67;;;9.40;99.90;;;;;;5094911;28;20825;-79
2021/11/15 11:46:55;;;;;;;20.87;10.13;;;9.40;99.90;;;;;;5088697;28;20423;-79
2021/11/15 11:49:43;;;;;;;13.60;9.10;;;9.40;99.90;;;;;;5092213;28;20573;-77
2021/11/15 11:52:32;;;;;;;19.83;11.40;;;9.50;99.90;;;;;;5092597;28;20526;-79
2021/11/15 11:55:21;;;;;;;17.73;11.23;;;9.50;99.90;;;;;;5094974;28;20496;-79
2021/11/15 11:58:20;;;;;;;18.80;11.20;;;9.50;99.90;;;;;;5091911;28;20986;-79
2021/11/15 12:01:15;;;;;;;22.00;12.97;;;9.50;99.90;;;;;;5095536;28;20492;-79
2021/11/15 12:04:16;;;;;;;20.63;13.47;;;9.40;99.90;;;;;;5092087;28;20790;-80
2021/11/15 12:07:24;;;;;;;21.97;12.27;;;9.30;99.90;;;;;;5089106;28;21008;-78
2021/11/15 12:10:11;;;;;;;20.10;12.07;;;9.30;99.90;;;;;;5095552;28;20429;-78
2021/11/15 12:12:59;;;;;;;22.00;13.17;;;9.20;99.90;;;;;;5097739;28;20445;-80
2021/11/15 12:15:52;;;;;;;22.25;12.88;;;9.20;99.90;;;;;;5091979;28;20453;-79
2021/11/15 12:18:38;;;;;;;22.60;14.07;;;9.20;99.90;;;;;;5090935;28;20216;-78
2021/11/15 12:21:24;;;;;;;22.30;12.57;;;9.20;99.90;;;;;;5086125;28;20466;-78
2021/11/15 12:24:17;;;;;;;24.20;13.90;;;9.10;99.90;;;;;;5089105;28;20551;-77
2021/11/15 12:27:07;;;;;;;22.50;11.70;;;9.10;99.90;;;;;;5097219;28;20529;-78
2021/11/15 12:30:09;;;;;;;22.17;13.47;;;9.10;99.90;;;;;;5098397;28;20812;-78
2021/11/15 12:33:25;;;;;;;25.03;14.10;;;9.10;99.90;;;;;;5081414;28;20445;-75
2021/11/15 12:36:12;;;;;;;23.20;14.00;;;9.10;99.90;;;;;;5086202;28;20432;-75
2021/11/15 12:39:00;;;;;;;23.67;14.33;;;9.10;99.90;;;;;;5080164;28;20473;-74
2021/11/15 12:41:50;;;;;;;26.93;14.10;;;9.10;99.90;;;;;;5087858;28;20422;-76
2021/11/15 12:44:38;;;;;;;22.90;14.67;;;9.10;99.90;;;;;;5082745;28;20501;-76
2021/11/15 12:47:23;;;;;;;26.27;14.90;;;9.10;99.90;;;;;;5090830;28;20421;-76
2021/11/15 12:50:15;;;;;;;45.33;16.83;;;9.10;99.90;;;;;;5088469;28;20496;-76
2021/11/15 12:53:00;;;;;;;27.90;16.93;;;9.10;99.90;;;;;;5081922;28;20828;-76
2021/11/15 12:55:48;;;;;;;25.50;15.17;;;9.10;99.90;;;;;;5084103;28;20539;-76
2021/11/15 12:58:35;;;;;;;26.17;16.17;;;9.20;99.90;;;;;;5085024;28;20444;-76
2021/11/15 13:01:21;;;;;;;25.13;15.50;;;9.20;99.90;;;;;;5083803;28;20453;-76
2021/11/15 13:04:07;;;;;;;26.57;15.90;;;9.20;99.90;;;;;;5085148;28;20445;-75
2021/11/15 13:06:53;;;;;;;31.60;17.93;;;9.20;99.90;;;;;;5089098;28;20544;-75
2021/11/15 13:09:39;;;;;;;30.08;16.40;;;9.10;99.90;;;;;;5086820;28;21001;-76
2021/11/15 13:12:27;;;;;;;29.00;16.03;;;9.20;99.90;;;;;;5084567;28;20507;-76
2021/11/15 13:15:14;;;;;;;30.90;15.73;;;9.20;99.90;;;;;;5085494;28;20503;-75
2021/11/15 13:18:00;;;;;;;31.63;17.40;;;9.20;99.90;;;;;;5087374;28;20981;-76
2021/11/15 13:20:45;;;;;;;32.10;17.47;;;9.20;99.90;;;;;;5090193;28;20452;-75
2021/11/15 13:23:31;;;;;;;26.60;16.13;;;9.20;99.90;;;;;;5084931;28;20457;-75
2021/11/15 13:26:17;;;;;;;25.77;16.27;;;9.30;99.90;;;;;;5084500;28;20469;-75
2021/11/15 13:29:02;;;;;;;30.73;16.30;;;9.20;99.90;;;;;;5098234;28;20469;-78
2021/11/15 13:31:51;;;;;;;30.83;17.70;;;9.20;99.90;;;;;;5094933;28;20491;-76
2021/11/15 13:34:38;;;;;;;30.17;16.63;;;9.30;99.90;;;;;;5082266;28;20962;-76
2021/11/15 13:37:24;;;;;;;30.83;17.63;;;9.20;99.90;;;;;;5084118;28;20451;-76
2021/11/15 13:40:11;;;;;;;29.80;17.70;;;9.30;99.90;;;;;;5083993;28;20473;-74
2021/11/15 13:42:57;;;;;;;31.20;16.97;;;9.20;99.90;;;;;;5086907;28;20512;-76
2021/11/15 13:45:44;;;;;;;28.50;15.47;;;9.20;99.90;;;;;;5092886;28;20582;-79
2021/11/15 13:48:31;;;;;;;32.70;18.70;;;9.20;99.90;;;;;;5099397;28;20508;-76
2021/11/15 13:51:17;;;;;;;30.60;16.93;;;9.20;99.90;;;;;;5099614;28;20777;-78
2021/11/15 13:54:04;;;;;;;31.00;17.47;;;9.20;99.90;;;;;;5102040;28;20457;-78
2021/11/15 13:56:50;;;;;;;29.50;17.30;;;9.20;99.90;;;;;;5093248;28;20427;-78
2021/11/15 13:59:36;;;;;;;27.47;17.43;;;9.30;99.90;;;;;;5101046;28;20530;-78
2021/11/15 14:02:22;;;;;;;36.27;18.47;;;9.30;99.90;;;;;;5098377;28;20429;-78
2021/11/15 14:05:11;;;;;;;32.10;17.50;;;9.30;99.90;;;;;;5099035;28;20449;-78
2021/11/15 14:07:56;;;;;;;38.80;18.40;;;9.20;99.90;;;;;;5099464;28;20422;-77
2021/11/15 14:10:42;;;;;;;34.00;18.47;;;9.10;99.90;;;;;;5099885;28;20806;-78
2021/11/15 14:13:29;;;;;;;26.80;17.40;;;9.10;99.90;;;;;;5097052;28;20425;-79
2021/11/15 14:16:15;;;;;;;37.73;20.10;;;9.10;99.90;;;;;;5101483;28;20494;-78
2021/11/15 14:19:00;;;;;;;25.83;15.70;;;9.10;99.90;;;;;;5095554;28;21043;-78
2021/11/15 14:21:47;;;;;;;30.10;19.50;;;9.10;99.90;;;;;;5100517;28;20421;-78
2021/11/15 14:24:37;;;;;;;26.83;16.13;;;9.10;99.90;;;;;;5097731;28;20448;-77